Time;durP1;ratioP1;P1;durP2;ratioP2;P2;SDS_P1;SDS_P2;PMS_P1;PMS_P2;Temp;Humidity;BMP_temperature;BMP_pressure;BME280_temperature;BME280_humidity;BME280_pressure;Samples;Min_cycle;Max_cycle;Signal;HPM_P1;HPM_P2
2022/07/19 00:02:10;;;;;;;1.90;0.77;;;24.20;37.10;;;;;;2320437;55;20955;-73
2022/07/19 00:04:36;;;;;;;2.47;0.77;;;24.10;37.20;;;;;;2316070;54;20943;-74
2022/07/19 00:07:03;;;;;;;3.15;1.00;;;24.10;37.20;;;;;;2326757;54;20911;-70
2022/07/19 00:09:29;;;;;;;2.08;0.88;;;24.10;37.30;;;;;;2317235;55;21000;-70
2022/07/19 00:11:57;;;;;;;2.87;1.15;;;24.00;37.30;;;;;;2315009;55;20923;-70
2022/07/19 00:14:23;;;;;;;2.62;0.90;;;24.00;37.60;;;;;;2316464;55;20939;-70
2022/07/19 00:16:50;;;;;;;3.28;1.00;;;23.90;37.60;;;;;;2344483;54;20977;-70
2022/07/19 00:19:16;;;;;;;2.87;1.25;;;23.90;37.70;;;;;;2343740;54;21381;-69
2022/07/19 00:21:43;;;;;;;2.33;1.00;;;23.90;37.80;;;;;;2339755;54;21851;-73
2022/07/19 00:24:09;;;;;;;2.20;0.90;;;23.80;37.80;;;;;;2343835;53;20952;-70
2022/07/19 00:26:35;;;;;;;1.92;0.95;;;23.80;37.90;;;;;;2345030;53;21012;-74
2022/07/19 00:29:03;;;;;;;1.92;0.90;;;23.70;38.10;;;;;;2338928;54;20968;-69
2022/07/19 00:31:30;;;;;;;3.62;1.17;;;23.70;38.20;;;;;;2344578;54;20953;-70
2022/07/19 00:33:56;;;;;;;2.85;1.00;;;23.70;38.20;;;;;;2590888;52;20936;-72
2022/07/19 00:36:23;;;;;;;2.65;0.88;;;23.60;38.20;;;;;;2316963;53;21102;-69
2022/07/19 00:38:49;;;;;;;2.22;1.00;;;23.60;38.30;;;;;;2370986;53;20991;-70
2022/07/19 00:41:16;;;;;;;3.97;1.15;;;23.50;38.20;;;;;;2316797;53;20944;-70
2022/07/19 00:43:42;;;;;;;3.15;1.50;;;23.50;38.30;;;;;;2317639;53;20958;-72
2022/07/19 00:46:15;;;;;;;2.95;1.00;;;23.50;38.40;;;;;;2317900;53;20988;-70
2022/07/19 00:48:42;;;;;;;2.28;1.08;;;23.40;38.70;;;;;;2320094;53;21335;-70
2022/07/19 00:51:09;;;;;;;4.15;0.82;;;23.40;38.50;;;;;;2315692;54;21012;-69
2022/07/19 00:53:39;;;;;;;2.05;1.00;;;23.40;38.70;;;;;;2483058;53;21439;-69
2022/07/19 00:56:06;;;;;;;2.40;1.00;;;23.30;38.70;;;;;;2335327;55;20905;-71
2022/07/19 00:58:34;;;;;;;2.20;1.00;;;23.30;38.70;;;;;;2324619;55;21051;-70
2022/07/19 01:01:02;;;;;;;2.05;1.00;;;23.20;38.70;;;;;;2326394;54;21091;-73
2022/07/19 01:03:29;;;;;;;3.03;1.08;;;23.20;39.10;;;;;;2326932;54;20915;-73
2022/07/19 01:05:55;;;;;;;2.92;1.30;;;23.10;39.10;;;;;;2325199;54;21033;-72
2022/07/19 01:08:24;;;;;;;2.70;1.33;;;23.10;39.20;;;;;;2328130;54;20972;-69
2022/07/19 01:10:50;;;;;;;2.47;1.08;;;23.10;39.30;;;;;;2323419;54;21017;-72
2022/07/19 01:13:20;;;;;;;3.67;1.30;;;23.00;39.20;;;;;;2319899;54;20995;-70
2022/07/19 01:15:46;;;;;;;2.53;1.00;;;23.00;39.30;;;;;;2325634;54;21072;-67
2022/07/19 01:18:13;;;;;;;2.60;1.08;;;23.00;39.30;;;;;;2321465;54;21011;-73
2022/07/19 01:20:39;;;;;;;2.85;1.05;;;22.90;39.50;;;;;;2345508;54;20961;-70
2022/07/19 01:23:06;;;;;;;2.60;1.00;;;22.90;39.60;;;;;;2342405;57;21064;-70
2022/07/19 01:25:37;;;;;;;2.17;1.10;;;22.80;39.50;;;;;;2589515;53;21139;-70
2022/07/19 01:28:07;;;;;;;1.70;0.90;;;22.80;39.70;;;;;;2334051;54;20929;-69
2022/07/19 01:30:36;;;;;;;1.80;0.90;;;22.70;39.70;;;;;;2343000;54;21700;-70
2022/07/19 01:33:02;;;;;;;2.85;1.17;;;22.70;39.70;;;;;;2431263;53;20996;-73
2022/07/19 01:35:31;;;;;;;2.30;1.17;;;22.70;39.80;;;;;;2343336;54;20945;-75
2022/07/19 01:37:57;;;;;;;2.60;1.12;;;22.60;39.80;;;;;;2342643;54;20929;-73
2022/07/19 01:40:24;;;;;;;4.75;1.30;;;22.60;39.80;;;;;;2342401;54;21023;-71
2022/07/19 01:42:50;;;;;;;2.75;1.20;;;22.60;40.10;;;;;;2317020;55;21049;-71
2022/07/19 01:45:16;;;;;;;2.25;1.20;;;22.50;40.10;;;;;;2315395;53;20935;-71
2022/07/19 01:47:43;;;;;;;3.30;1.10;;;22.40;40.20;;;;;;2317701;53;20943;-71
2022/07/19 01:50:11;;;;;;;3.75;1.33;;;22.40;40.40;;;;;;2315632;54;20996;-75
2022/07/19 01:52:40;;;;;;;2.85;1.40;;;22.40;40.60;;;;;;2315660;54;20965;-77
2022/07/19 01:55:10;;;;;;;2.58;1.10;;;22.40;40.60;;;;;;2556388;53;21027;-70
2022/07/19 01:57:36;;;;;;;3.25;1.45;;;22.30;40.50;;;;;;2555425;53;20929;-74
2022/07/19 02:00:04;;;;;;;2.47;1.15;;;22.30;40.60;;;;;;2443384;53;20996;-72
2022/07/19 02:02:30;;;;;;;2.35;1.20;;;22.30;40.70;;;;;;2315339;54;20997;-71
2022/07/19 02:04:57;;;;;;;2.22;1.00;;;22.20;40.70;;;;;;2315602;54;21013;-71
2022/07/19 02:07:23;;;;;;;2.67;1.35;;;22.20;40.70;;;;;;2314545;55;20950;-71
2022/07/19 02:09:50;;;;;;;4.18;0.90;;;22.10;40.70;;;;;;2315159;53;20907;-76
2022/07/19 02:12:20;;;;;;;2.70;1.20;;;22.10;40.80;;;;;;2366407;53;20955;-71
2022/07/19 02:14:47;;;;;;;4.00;1.48;;;22.10;40.90;;;;;;2314984;54;20979;-71
2022/07/19 02:17:13;;;;;;;2.40;1.08;;;22.00;41.00;;;;;;2314959;54;20949;-71
2022/07/19 02:19:39;;;;;;;2.03;1.00;;;22.00;41.10;;;;;;2316331;53;20946;-73
2022/07/19 02:22:06;;;;;;;2.20;1.10;;;22.00;41.10;;;;;;2314915;53;20951;-74
2022/07/19 02:24:32;;;;;;;2.80;1.17;;;21.90;41.10;;;;;;2318902;54;20955;-71
2022/07/19 02:26:59;;;;;;;3.15;1.00;;;21.90;41.20;;;;;;2314505;55;20911;-71
2022/07/19 02:29:26;;;;;;;2.72;1.10;;;21.90;41.30;;;;;;2306411;55;20980;-71
2022/07/19 02:31:52;;;;;;;3.10;1.08;;;21.80;41.20;;;;;;2293433;54;20998;-75
2022/07/19 02:34:19;;;;;;;2.10;1.10;;;21.80;41.30;;;;;;2321054;54;20963;-74
2022/07/19 02:36:45;;;;;;;2.00;0.98;;;21.80;41.40;;;;;;2317406;55;20935;-72
2022/07/19 02:39:13;;;;;;;3.45;1.20;;;21.70;41.40;;;;;;2557306;53;20970;-73
2022/07/19 02:41:39;;;;;;;2.67;1.20;;;21.70;41.70;;;;;;2311476;55;20947;-71
2022/07/19 02:44:05;;;;;;;2.30;1.05;;;21.70;41.90;;;;;;2557863;53;21477;-71
2022/07/19 02:46:31;;;;;;;3.30;1.10;;;21.60;41.90;;;;;;2317370;53;20961;-72
2022/07/19 02:48:58;;;;;;;2.00;1.00;;;21.60;41.90;;;;;;2313237;55;21983;-71
2022/07/19 02:51:24;;;;;;;2.30;1.30;;;21.60;42.00;;;;;;2316713;53;20933;-71
2022/07/19 02:53:51;;;;;;;2.40;1.17;;;21.50;42.10;;;;;;2550136;53;20991;-71
2022/07/19 02:56:19;;;;;;;2.95;1.37;;;21.50;42.20;;;;;;2315530;54;21054;-71
2022/07/19 02:58:46;;;;;;;2.67;1.00;;;21.50;42.10;;;;;;2317779;53;20947;-71
2022/07/19 03:01:15;;;;;;;3.03;1.00;;;21.50;42.10;;;;;;2317313;53;21510;-71
2022/07/19 03:03:44;;;;;;;2.30;1.10;;;21.40;42.00;;;;;;2316943;54;21003;-75
2022/07/19 03:06:11;;;;;;;3.87;1.23;;;21.40;42.40;;;;;;2316901;54;20936;-72
2022/07/19 03:08:41;;;;;;;2.30;1.10;;;21.30;42.40;;;;;;2317656;54;20976;-71
2022/07/19 03:11:07;;;;;;;2.45;1.17;;;21.20;42.30;;;;;;2427078;53;20932;-72
2022/07/19 03:13:37;;;;;;;2.70;1.20;;;21.20;42.40;;;;;;2315487;55;20964;-74
2022/07/19 03:16:04;;;;;;;2.92;1.30;;;21.20;42.50;;;;;;2315884;55;20911;-71
2022/07/19 03:18:30;;;;;;;2.55;1.12;;;21.20;42.60;;;;;;2575631;53;20964;-71
2022/07/19 03:20:58;;;;;;;2.78;1.17;;;21.10;42.60;;;;;;2318056;54;20978;-71
2022/07/19 03:23:33;;;;;;;2.12;1.05;;;21.10;42.50;;;;;;2316657;53;20994;-73
2022/07/19 03:26:00;;;;;;;1.83;0.93;;;21.10;42.80;;;;;;2313693;54;21636;-73
2022/07/19 03:28:26;;;;;;;1.87;1.02;;;21.00;42.60;;;;;;2315788;54;21022;-73
2022/07/19 03:30:53;;;;;;;2.30;1.10;;;21.00;42.60;;;;;;2316328;54;20959;-72
2022/07/19 03:33:20;;;;;;;2.37;0.95;;;21.00;42.70;;;;;;2556947;53;20941;-71
2022/07/19 03:35:46;;;;;;;2.72;1.25;;;21.00;42.70;;;;;;2310148;54;20939;-72
2022/07/19 03:38:12;;;;;;;3.60;1.50;;;21.00;42.80;;;;;;2338427;55;20945;-71
2022/07/19 03:40:39;;;;;;;3.33;1.20;;;20.90;42.90;;;;;;2339844;55;21406;-71
2022/07/19 03:43:06;;;;;;;2.37;1.23;;;20.90;43.00;;;;;;2323807;54;20996;-71
2022/07/19 03:45:33;;;;;;;3.47;1.35;;;20.90;43.00;;;;;;2331121;54;20976;-72
2022/07/19 03:48:00;;;;;;;3.00;1.45;;;20.80;43.10;;;;;;2316583;54;20951;-73
2022/07/19 03:50:28;;;;;;;2.70;1.20;;;20.80;43.20;;;;;;2514384;53;20960;-71
2022/07/19 03:52:54;;;;;;;2.20;1.20;;;20.80;43.30;;;;;;2409480;53;20984;-71
2022/07/19 03:55:21;;;;;;;2.33;1.15;;;20.80;43.30;;;;;;2556503;53;20930;-71
2022/07/19 03:57:49;;;;;;;2.83;1.42;;;20.80;43.30;;;;;;2420643;53;21012;-74
2022/07/19 04:00:16;;;;;;;2.83;1.20;;;20.70;43.30;;;;;;2341904;54;21764;-71
2022/07/19 04:02:42;;;;;;;2.40;1.10;;;20.70;43.20;;;;;;2590174;53;21406;-73
2022/07/19 04:05:09;;;;;;;2.40;1.20;;;20.70;43.30;;;;;;2343960;54;20952;-71
2022/07/19 04:07:36;;;;;;;3.15;1.30;;;20.60;43.30;;;;;;2588617;53;20941;-71
2022/07/19 04:10:03;;;;;;;2.97;1.30;;;20.60;43.40;;;;;;2393378;53;21005;-74
2022/07/19 04:12:29;;;;;;;2.58;1.10;;;20.60;43.50;;;;;;2580185;53;20953;-71
2022/07/19 04:14:56;;;;;;;2.78;1.30;;;20.50;43.50;;;;;;2346165;54;20984;-73
2022/07/19 04:17:24;;;;;;;2.58;1.27;;;20.50;43.70;;;;;;2455663;53;21827;-71
2022/07/19 04:19:50;;;;;;;2.62;1.30;;;20.50;43.80;;;;;;2344611;54;20932;-72
2022/07/19 04:22:17;;;;;;;2.58;1.33;;;20.50;43.80;;;;;;2344217;54;20973;-71
2022/07/19 04:24:44;;;;;;;4.30;1.30;;;20.40;43.70;;;;;;2343289;54;20976;-72
2022/07/19 04:27:12;;;;;;;3.62;1.40;;;20.40;43.90;;;;;;2433138;53;21017;-72
2022/07/19 04:29:38;;;;;;;4.53;1.65;;;20.40;44.00;;;;;;2324289;54;20885;-73
2022/07/19 04:32:06;;;;;;;4.37;1.27;;;20.30;44.10;;;;;;2343433;54;21020;-73
2022/07/19 04:34:35;;;;;;;2.80;1.50;;;20.30;44.20;;;;;;2332779;54;20969;-73
2022/07/19 04:37:05;;;;;;;2.97;1.50;;;20.30;44.10;;;;;;2335601;54;21425;-71
2022/07/19 04:39:31;;;;;;;3.37;2.00;;;20.30;44.20;;;;;;2343005;54;20968;-71
2022/07/19 04:41:58;;;;;;;2.78;1.50;;;20.30;44.30;;;;;;2589849;53;21520;-71
2022/07/19 04:44:24;;;;;;;4.55;2.03;;;20.30;44.40;;;;;;2407752;53;21307;-71
2022/07/19 04:46:51;;;;;;;4.07;1.90;;;20.20;44.40;;;;;;2344026;54;20917;-71
2022/07/19 04:49:18;;;;;;;4.62;2.05;;;20.20;44.40;;;;;;2316561;53;21094;-76
2022/07/19 04:51:44;;;;;;;4.32;2.15;;;20.20;44.50;;;;;;2323588;54;21006;-75
2022/07/19 04:54:11;;;;;;;5.15;2.10;;;20.20;44.60;;;;;;2461032;54;21088;-71
2022/07/19 04:56:37;;;;;;;3.83;1.90;;;20.20;44.90;;;;;;2327795;54;21526;-72
2022/07/19 04:59:03;;;;;;;3.40;1.92;;;20.20;44.70;;;;;;2314904;53;20970;-70
2022/07/19 05:01:30;;;;;;;5.05;1.90;;;20.20;44.80;;;;;;2317036;54;20982;-71
2022/07/19 05:03:57;;;;;;;3.10;1.65;;;20.20;44.90;;;;;;2324919;53;21017;-72
2022/07/19 05:06:24;;;;;;;3.37;1.90;;;20.20;45.00;;;;;;2384154;54;20987;-72
2022/07/19 05:08:52;;;;;;;3.22;1.70;;;20.20;45.20;;;;;;2313675;54;20927;-70
2022/07/19 05:11:19;;;;;;;3.58;1.83;;;20.20;45.40;;;;;;2547050;52;21042;-71
2022/07/19 05:13:46;;;;;;;4.37;2.00;;;20.20;45.50;;;;;;2343925;54;20941;-73
2022/07/19 05:16:12;;;;;;;4.18;2.20;;;20.30;45.70;;;;;;2490795;52;20974;-75
2022/07/19 05:18:39;;;;;;;3.47;1.90;;;20.30;45.90;;;;;;2344540;54;21028;-71
2022/07/19 05:21:07;;;;;;;4.53;1.90;;;20.30;46.00;;;;;;2590628;52;20920;-71
2022/07/19 05:23:33;;;;;;;3.08;1.58;;;20.40;46.20;;;;;;2343607;54;20988;-71
2022/07/19 05:25:59;;;;;;;3.37;1.67;;;20.40;46.20;;;;;;2515319;52;21000;-72
2022/07/19 05:28:29;;;;;;;3.25;1.50;;;20.40;46.30;;;;;;2343305;54;20917;-77
2022/07/19 05:30:58;;;;;;;3.03;1.73;;;20.50;46.50;;;;;;2590442;52;20932;-73
2022/07/19 05:33:26;;;;;;;4.15;1.98;;;20.60;46.50;;;;;;2590633;52;20933;-71
2022/07/19 05:35:53;;;;;;;4.03;1.92;;;20.60;46.60;;;;;;2558040;53;21452;-71
2022/07/19 05:38:19;;;;;;;3.30;1.50;;;20.60;46.60;;;;;;2316174;54;20919;-71
2022/07/19 05:40:47;;;;;;;3.50;1.50;;;20.70;46.70;;;;;;2408739;53;21046;-71
2022/07/19 05:43:15;;;;;;;3.00;1.60;;;20.70;46.70;;;;;;2389163;53;21074;-75
2022/07/19 05:45:44;;;;;;;3.50;1.45;;;20.80;46.80;;;;;;2316578;54;21436;-76
2022/07/19 05:48:10;;;;;;;2.83;1.50;;;20.90;47.00;;;;;;2317060;54;21828;-73
2022/07/19 05:50:37;;;;;;;2.35;1.40;;;20.90;47.00;;;;;;2317400;54;21471;-72
2022/07/19 05:53:03;;;;;;;2.78;1.40;;;21.00;47.00;;;;;;2317473;54;20951;-77
2022/07/19 05:55:30;;;;;;;3.20;1.40;;;21.10;47.20;;;;;;2316222;54;20995;-71
2022/07/19 05:57:56;;;;;;;3.22;1.30;;;21.20;47.20;;;;;;2316643;54;20991;-72
2022/07/19 06:00:23;;;;;;;2.70;1.20;;;21.30;47.20;;;;;;2314004;53;21066;-75
2022/07/19 06:02:52;;;;;;;3.45;1.50;;;21.30;47.20;;;;;;2312697;54;21867;-71
2022/07/19 06:05:19;;;;;;;4.28;1.30;;;21.40;47.20;;;;;;2422993;53;21515;-71
2022/07/19 06:07:47;;;;;;;2.92;1.60;;;21.50;47.20;;;;;;2316978;54;21290;-72
2022/07/19 06:10:14;;;;;;;5.07;1.90;;;21.60;47.30;;;;;;2389714;53;21701;-71
2022/07/19 06:12:43;;;;;;;3.50;1.80;;;21.60;47.40;;;;;;2318712;54;21952;-70
2022/07/19 06:15:10;;;;;;;3.15;1.70;;;21.70;47.60;;;;;;2439288;53;21054;-70
2022/07/19 06:17:37;;;;;;;3.00;1.42;;;21.80;47.50;;;;;;2319817;54;20978;-72
2022/07/19 06:20:05;;;;;;;3.47;1.50;;;21.90;47.60;;;;;;2316209;54;20931;-72
2022/07/19 06:22:31;;;;;;;2.70;1.58;;;22.00;47.70;;;;;;2317203;54;21411;-73
2022/07/19 06:24:59;;;;;;;5.43;1.70;;;22.10;47.60;;;;;;2487850;53;20951;-72
2022/07/19 06:27:26;;;;;;;3.40;1.65;;;22.10;47.40;;;;;;2316887;54;20937;-73
2022/07/19 06:29:52;;;;;;;2.78;1.35;;;22.30;47.50;;;;;;2396163;53;21666;-72
2022/07/19 06:32:19;;;;;;;3.25;1.58;;;22.40;47.60;;;;;;2376140;53;21018;-72
2022/07/19 06:34:46;;;;;;;3.10;1.60;;;22.40;47.70;;;;;;2316394;54;20947;-77
2022/07/19 06:37:12;;;;;;;2.65;1.37;;;22.50;47.70;;;;;;2322075;55;20980;-72
2022/07/19 06:39:39;;;;;;;2.97;1.60;;;22.60;47.60;;;;;;2323357;54;20932;-76
2022/07/19 06:42:06;;;;;;;2.83;1.25;;;22.70;47.70;;;;;;2338398;55;20994;-70
2022/07/19 06:44:32;;;;;;;8.68;2.50;;;22.90;47.80;;;;;;2386470;53;20900;-70
2022/07/19 06:47:00;;;;;;;6.90;1.75;;;23.00;47.80;;;;;;2444422;53;20920;-70
2022/07/19 06:49:27;;;;;;;2.03;1.12;;;23.10;47.80;;;;;;2339204;55;20976;-75
2022/07/19 06:51:54;;;;;;;3.12;1.20;;;23.20;47.90;;;;;;2485212;53;21046;-78
2022/07/19 06:54:21;;;;;;;3.17;1.62;;;23.30;47.90;;;;;;2556329;53;20951;-76
2022/07/19 06:56:48;;;;;;;3.08;1.50;;;23.50;48.00;;;;;;2322990;54;20951;-73
2022/07/19 06:59:14;;;;;;;3.12;1.42;;;23.60;48.00;;;;;;2344119;54;21630;-75
2022/07/19 07:01:43;;;;;;;2.53;1.20;;;23.70;48.10;;;;;;2344748;54;21029;-76
2022/07/19 07:04:10;;;;;;;2.75;1.40;;;23.80;48.10;;;;;;2585167;53;20910;-70
2022/07/19 07:06:37;;;;;;;3.20;1.67;;;24.00;48.10;;;;;;2344136;54;21400;-72
2022/07/19 07:09:03;;;;;;;3.75;1.80;;;24.10;48.20;;;;;;2391008;53;20925;-73
2022/07/19 07:11:29;;;;;;;4.32;1.60;;;24.20;48.00;;;;;;2331319;54;20996;-72
2022/07/19 07:13:56;;;;;;;3.33;1.42;;;24.40;48.10;;;;;;2336176;54;20929;-71
2022/07/19 07:16:22;;;;;;;4.57;1.50;;;24.50;48.00;;;;;;2321703;54;20964;-72
2022/07/19 07:18:48;;;;;;;3.97;1.40;;;24.60;47.90;;;;;;2344271;54;21524;-72
2022/07/19 07:21:15;;;;;;;3.00;1.55;;;24.70;47.70;;;;;;2341391;54;20944;-75
2022/07/19 07:23:41;;;;;;;4.18;1.77;;;24.90;47.70;;;;;;2368322;53;22417;-74
2022/07/19 07:26:08;;;;;;;4.57;1.85;;;25.00;47.80;;;;;;2482916;53;21005;-72
2022/07/19 07:28:36;;;;;;;4.05;1.67;;;25.10;47.70;;;;;;2386789;53;20936;-73
2022/07/19 07:31:07;;;;;;;2.90;1.50;;;25.20;47.50;;;;;;2345023;54;21215;-73
2022/07/19 07:33:34;;;;;;;2.42;1.10;;;25.40;47.40;;;;;;2329765;54;20952;-71
2022/07/19 07:36:00;;;;;;;3.70;1.58;;;25.50;47.30;;;;;;2324862;55;20918;-73
2022/07/19 07:38:27;;;;;;;3.28;1.33;;;25.60;47.30;;;;;;2413496;53;20985;-72
2022/07/19 07:40:54;;;;;;;3.58;1.42;;;25.80;47.30;;;;;;2344522;54;20985;-73
2022/07/19 07:43:31;;;;;;;2.78;1.33;;;25.90;47.20;;;;;;2344316;54;20936;-73
2022/07/19 07:45:58;;;;;;;4.93;1.85;;;26.00;47.20;;;;;;2344087;54;20968;-72
2022/07/19 07:48:27;;;;;;;3.78;1.60;;;26.20;47.20;;;;;;2481156;53;21064;-73
2022/07/19 07:50:55;;;;;;;3.83;1.73;;;26.30;47.20;;;;;;2334491;54;21020;-74
2022/07/19 07:53:22;;;;;;;2.78;1.40;;;26.50;47.20;;;;;;2366415;53;20932;-74
2022/07/19 07:55:48;;;;;;;4.15;1.40;;;26.60;47.10;;;;;;2344252;54;20921;-75
2022/07/19 07:58:15;;;;;;;7.47;1.92;;;26.70;47.00;;;;;;2543275;53;21007;-73
2022/07/19 08:00:41;;;;;;;4.28;1.60;;;26.90;46.90;;;;;;2344990;54;20980;-73
2022/07/19 08:03:08;;;;;;;5.82;1.60;;;27.00;46.80;;;;;;2521253;53;21003;-74
2022/07/19 08:05:34;;;;;;;2.85;1.30;;;27.20;46.70;;;;;;2344014;54;20937;-76
2022/07/19 08:08:01;;;;;;;2.97;1.23;;;27.30;46.60;;;;;;2343889;54;20941;-72
2022/07/19 08:10:28;;;;;;;3.22;1.48;;;27.40;46.50;;;;;;2343666;54;21024;-72
2022/07/19 08:12:55;;;;;;;5.60;1.55;;;27.60;46.50;;;;;;2324932;54;20949;-71
2022/07/19 08:15:21;;;;;;;2.47;1.23;;;27.70;46.30;;;;;;2537479;53;21000;-71
2022/07/19 08:17:47;;;;;;;6.70;1.30;;;27.80;46.10;;;;;;2344744;54;20941;-71
2022/07/19 08:20:14;;;;;;;3.60;1.33;;;27.90;45.90;;;;;;2337015;54;20953;-72
2022/07/19 08:22:40;;;;;;;4.80;1.58;;;28.10;45.70;;;;;;2325755;54;20957;-69
2022/07/19 08:25:07;;;;;;;3.40;1.42;;;28.20;45.50;;;;;;2319565;54;20931;-72
2022/07/19 08:27:34;;;;;;;4.68;1.50;;;28.30;45.20;;;;;;2341661;54;20946;-71
2022/07/19 08:30:01;;;;;;;4.07;1.37;;;28.40;45.10;;;;;;2562890;53;21399;-71
2022/07/19 08:32:30;;;;;;;2.70;1.60;;;28.50;44.90;;;;;;2343847;54;21347;-71
2022/07/19 08:34:57;;;;;;;2.85;1.45;;;28.70;44.80;;;;;;2344304;54;20985;-75
2022/07/19 08:37:24;;;;;;;2.87;1.25;;;28.80;44.60;;;;;;2344892;54;21406;-73
2022/07/19 08:39:50;;;;;;;3.50;1.52;;;28.90;44.60;;;;;;2563350;53;20949;-71
2022/07/19 08:42:22;;;;;;;3.08;1.50;;;29.00;44.60;;;;;;2344324;54;21032;-71
2022/07/19 08:44:51;;;;;;;4.70;1.37;;;29.10;44.30;;;;;;2343178;54;20941;-71
2022/07/19 08:47:20;;;;;;;3.05;1.42;;;29.20;44.10;;;;;;2312231;53;21035;-71
2022/07/19 08:49:48;;;;;;;3.85;1.73;;;29.40;44.10;;;;;;2317348;54;20967;-74
2022/07/19 08:52:14;;;;;;;3.55;1.62;;;29.40;43.80;;;;;;2317277;53;21262;-71
2022/07/19 08:54:41;;;;;;;4.05;1.60;;;29.50;43.60;;;;;;2317295;54;20982;-71
2022/07/19 08:59:53;;;;;;;3.05;1.25;;;29.70;43.30;;;;;;2407457;54;22160;-73
2022/07/19 09:02:20;;;;;;;2.95;1.60;;;29.90;43.30;;;;;;2301919;54;21737;-74
2022/07/19 09:05:07;;;;;;;3.12;1.20;;;30.00;43.00;;;;;;2322249;54;21082;-72
2022/07/19 09:07:36;;;;;;;4.70;1.52;;;30.10;42.80;;;;;;2314029;53;20977;-72
2022/07/19 09:10:18;;;;;;;3.30;1.50;;;30.20;42.70;;;;;;2315282;53;21527;-73
2022/07/19 09:13:07;;;;;;;3.15;1.42;;;30.30;42.00;;;;;;2315883;53;21436;-71
2022/07/19 09:15:50;;;;;;;2.60;1.30;;;30.40;41.70;;;;;;2316876;53;20939;-71
2022/07/19 09:18:27;;;;;;;3.10;1.60;;;30.50;41.70;;;;;;2316447;54;20959;-72
2022/07/19 09:20:54;;;;;;;3.87;1.50;;;30.60;41.50;;;;;;2316641;54;21023;-72
2022/07/19 09:23:21;;;;;;;3.15;1.48;;;30.70;41.50;;;;;;2315578;54;20943;-70
2022/07/19 09:25:52;;;;;;;3.22;1.50;;;30.80;41.30;;;;;;2318657;53;20931;-72
2022/07/19 09:28:20;;;;;;;4.45;1.70;;;30.90;41.10;;;;;;2373784;53;20952;-72
2022/07/19 09:31:02;;;;;;;2.55;1.40;;;31.10;41.20;;;;;;2316877;54;20996;-73
2022/07/19 09:33:30;;;;;;;5.45;1.65;;;31.20;40.90;;;;;;2316531;53;21400;-73
2022/07/19 09:36:11;;;;;;;4.05;1.55;;;31.30;41.10;;;;;;2308370;54;20978;-73
2022/07/19 09:38:42;;;;;;;3.37;1.65;;;31.40;41.00;;;;;;2317012;53;20960;-72
2022/07/19 09:41:16;;;;;;;3.30;1.40;;;31.50;40.70;;;;;;2317327;53;21477;-71
2022/07/19 09:44:23;;;;;;;4.85;1.42;;;31.70;40.20;;;;;;2317191;54;20972;-71
2022/07/19 09:46:50;;;;;;;3.50;1.58;;;31.80;40.20;;;;;;2317156;54;20972;-72
2022/07/19 09:49:17;;;;;;;4.05;1.70;;;31.90;40.00;;;;;;2316018;54;20983;-72
2022/07/19 09:51:46;;;;;;;4.95;1.58;;;32.00;40.40;;;;;;2316890;54;21004;-72
2022/07/19 09:54:17;;;;;;;3.28;1.70;;;32.10;39.60;;;;;;2316160;54;21002;-72
2022/07/19 09:56:44;;;;;;;4.40;1.50;;;32.20;39.50;;;;;;2421118;53;21707;-76
2022/07/19 09:59:11;;;;;;;3.22;1.65;;;32.40;39.50;;;;;;2321328;54;21528;-72
2022/07/19 10:01:37;;;;;;;4.35;1.48;;;32.50;39.40;;;;;;2455685;53;21019;-71
2022/07/19 10:04:12;;;;;;;3.62;1.60;;;32.60;39.30;;;;;;2315002;54;21031;-72
2022/07/19 10:06:39;;;;;;;2.80;1.30;;;32.70;38.60;;;;;;2317449;55;21643;-75
2022/07/19 10:09:08;;;;;;;3.03;1.50;;;32.80;38.60;;;;;;2317033;55;20964;-73
2022/07/19 10:11:35;;;;;;;3.67;1.35;;;32.90;37.90;;;;;;2319960;54;20971;-71
2022/07/19 10:14:01;;;;;;;2.87;1.10;;;33.00;37.60;;;;;;2321125;54;20908;-71
2022/07/19 10:16:49;;;;;;;2.55;1.20;;;33.10;37.50;;;;;;2303932;54;20979;-70
2022/07/19 10:19:22;;;;;;;2.40;1.30;;;33.20;37.40;;;;;;2550157;53;20927;-74
2022/07/19 10:21:49;;;;;;;3.05;1.52;;;33.30;36.90;;;;;;2503347;53;21614;-74
2022/07/19 10:24:18;;;;;;;2.80;1.35;;;33.50;36.90;;;;;;2318354;53;20983;-75
2022/07/19 10:26:51;;;;;;;2.83;1.20;;;33.50;36.60;;;;;;2451118;53;21014;-70
2022/07/19 10:29:18;;;;;;;2.47;1.12;;;33.60;36.30;;;;;;2303108;54;20897;-72
2022/07/19 10:32:05;;;;;;;2.83;1.30;;;33.70;35.90;;;;;;2309237;54;20929;-72
2022/07/19 10:34:34;;;;;;;2.25;1.20;;;33.80;35.30;;;;;;2338569;55;21013;-71
2022/07/19 10:37:01;;;;;;;3.53;1.48;;;33.90;35.30;;;;;;2326190;54;20955;-73
2022/07/19 10:39:38;;;;;;;3.40;1.25;;;34.00;35.00;;;;;;2340943;54;21060;-72
2022/07/19 10:42:18;;;;;;;2.90;1.15;;;34.10;34.60;;;;;;2342590;54;20968;-72
2022/07/19 10:46:39;;;;;;;2.60;1.17;;;34.20;33.80;;;;;;2343734;54;21698;-71
2022/07/19 10:49:08;;;;;;;3.47;0.90;;;34.40;34.20;;;;;;2555693;53;20996;-71
2022/07/19 10:51:39;;;;;;;2.85;0.98;;;34.40;34.10;;;;;;2402997;53;20960;-71
2022/07/19 10:54:06;;;;;;;1.87;0.90;;;34.60;34.00;;;;;;2319276;54;21014;-72
2022/07/19 10:56:38;;;;;;;2.90;1.20;;;34.60;33.90;;;;;;2341417;54;20992;-72
2022/07/19 10:59:12;;;;;;;2.60;1.20;;;34.80;33.80;;;;;;2343908;54;20941;-74
2022/07/19 11:01:53;;;;;;;5.53;1.35;;;34.80;33.40;;;;;;2344373;54;20980;-74
2022/07/19 11:04:41;;;;;;;2.83;1.30;;;34.90;32.70;;;;;;2344704;54;20929;-74
2022/07/19 11:07:15;;;;;;;2.72;1.20;;;35.10;32.20;;;;;;2344348;54;21617;-74
2022/07/19 11:09:46;;;;;;;2.87;1.00;;;35.10;31.90;;;;;;2344052;54;20941;-72
2022/07/19 11:12:29;;;;;;;3.08;1.20;;;35.20;32.10;;;;;;2343785;54;21465;-72
2022/07/19 11:14:57;;;;;;;2.40;1.00;;;35.30;31.50;;;;;;2343042;54;21525;-75
2022/07/19 11:17:55;;;;;;;2.47;1.40;;;35.30;31.70;;;;;;2342101;54;21088;-72
2022/07/19 11:20:28;;;;;;;3.20;1.10;;;35.40;31.20;;;;;;2345944;54;20981;-71
2022/07/19 11:22:56;;;;;;;3.95;1.20;;;35.50;31.40;;;;;;2378677;53;20940;-74
2022/07/19 11:25:29;;;;;;;2.90;1.05;;;35.70;31.50;;;;;;2343562;54;20993;-73
2022/07/19 11:27:55;;;;;;;;;;;35.60;31.00;;;;;;2346555;54;21068;-72
2022/07/19 11:30:23;;;;;;;4.65;1.30;;;35.80;31.50;;;;;;2341530;54;20074;-72
2022/07/19 11:32:57;;;;;;;3.28;1.20;;;35.80;31.00;;;;;;2362810;54;20948;-74
2022/07/19 11:35:30;;;;;;;2.65;1.10;;;35.90;30.40;;;;;;2343928;54;20968;-72
2022/07/19 11:37:57;;;;;;;3.33;1.10;;;36.00;30.40;;;;;;2590171;53;21000;-72
2022/07/19 11:40:25;;;;;;;2.65;0.93;;;36.00;30.40;;;;;;2343228;54;21437;-72
2022/07/19 11:42:51;;;;;;;2.35;1.02;;;36.10;30.30;;;;;;2344382;54;21442;-74
2022/07/19 11:45:51;;;;;;;2.53;1.17;;;36.20;30.00;;;;;;2327027;54;20919;-74
2022/07/19 11:48:28;;;;;;;2.92;1.25;;;36.20;30.00;;;;;;2335216;54;21901;-72
2022/07/19 11:51:08;;;;;;;3.67;1.30;;;36.30;29.70;;;;;;2344121;54;20940;-72
2022/07/19 11:53:36;;;;;;;2.30;1.10;;;36.40;29.40;;;;;;2346371;53;20956;-73
2022/07/19 11:56:04;;;;;;;3.22;0.93;;;36.50;29.50;;;;;;2336082;54;21785;-76
2022/07/19 11:58:31;;;;;;;2.83;0.93;;;36.50;29.20;;;;;;2587928;52;20979;-71
2022/07/19 12:01:05;;;;;;;2.45;1.00;;;36.60;29.00;;;;;;2337591;54;21604;-72
2022/07/19 12:03:31;;;;;;;3.35;1.10;;;36.70;28.70;;;;;;2589694;52;21437;-72
2022/07/19 12:06:03;;;;;;;3.17;1.23;;;36.80;28.60;;;;;;2341373;54;20987;-73
2022/07/19 12:08:39;;;;;;;;;;;36.90;28.40;;;;;;2345671;54;20921;-71
2022/07/19 12:11:23;;;;;;;1.85;0.85;;;37.00;28.80;;;;;;2342077;54;20062;-74
2022/07/19 12:13:51;;;;;;;1.52;0.80;;;37.00;28.10;;;;;;2396112;52;20928;-72
2022/07/19 12:16:18;;;;;;;4.05;1.20;;;37.00;28.40;;;;;;2343623;54;21848;-72
2022/07/19 12:19:09;;;;;;;3.80;1.10;;;37.10;28.40;;;;;;2408371;52;22410;-73
2022/07/19 12:21:40;;;;;;;;;;;37.20;27.90;;;;;;2369633;53;20939;-76
2022/07/19 12:24:20;;;;;;;2.25;0.93;;;37.30;28.40;;;;;;2442916;52;20351;-73
2022/07/19 12:26:59;;;;;;;2.37;0.98;;;37.30;27.80;;;;;;2518512;53;21060;-73
2022/07/19 12:29:44;;;;;;;2.80;1.10;;;37.40;27.80;;;;;;2603268;52;20948;-73
2022/07/19 12:32:13;;;;;;;2.97;1.02;;;37.50;27.60;;;;;;2342519;54;21390;-76
2022/07/19 12:34:58;;;;;;;3.22;1.25;;;37.50;27.90;;;;;;2343872;57;21115;-73
2022/07/19 12:37:31;;;;;;;3.42;0.93;;;37.60;27.20;;;;;;2367846;53;21131;-74
2022/07/19 12:40:23;;;;;;;2.58;1.10;;;37.70;27.10;;;;;;2413114;53;21425;-73
2022/07/19 12:43:02;;;;;;;3.90;1.27;;;37.80;26.70;;;;;;2335044;54;20991;-73
2022/07/19 12:45:34;;;;;;;2.65;1.00;;;37.80;27.00;;;;;;2312250;53;21015;-72
2022/07/19 12:48:01;;;;;;;2.90;1.10;;;37.90;27.00;;;;;;2315977;53;20923;-76
2022/07/19 12:50:38;;;;;;;3.37;1.08;;;37.90;27.10;;;;;;2310655;54;21695;-76
2022/07/19 12:53:08;;;;;;;2.55;1.00;;;38.00;26.70;;;;;;2316288;54;20955;-73
2022/07/19 12:55:35;;;;;;;2.37;1.05;;;38.10;26.70;;;;;;2315601;54;20947;-72
2022/07/19 12:58:01;;;;;;;2.78;1.17;;;38.10;26.70;;;;;;2314094;54;21901;-72
2022/07/19 13:00:29;;;;;;;2.60;1.27;;;38.20;26.70;;;;;;2309865;54;20968;-75
2022/07/19 13:02:58;;;;;;;2.80;1.15;;;38.20;26.70;;;;;;2318013;54;20987;-75